Time;durP1;ratioP1;P1;durP2;ratioP2;P2;SDS_P1;SDS_P2;PMS_P1;PMS_P2;Temp;Humidity;BMP_temperature;BMP_pressure;BME280_temperature;BME280_humidity;BME280_pressure;Samples;Min_cycle;Max_cycle;Signal;HPM_P1;HPM_P2
2023/10/02 00:01:06;;;;;;;20.35;11.15;;;15.30;74.20;;;;;;5076831;28;20024;-72
2023/10/02 00:03:33;;;;;;;17.65;10.13;;;15.30;74.20;;;;;;5076359;28;20373;-72
2023/10/02 00:05:59;;;;;;;18.58;11.85;;;15.20;74.30;;;;;;5076467;28;20023;-72
2023/10/02 00:08:40;;;;;;;19.08;11.60;;;15.20;74.50;;;;;;5076355;28;20021;-72
2023/10/02 00:14:18;;;;;;;21.13;11.52;;;15.10;74.40;;;;;;5076410;28;20487;-72
2023/10/02 00:16:42;;;;;;;22.42;11.40;;;15.10;74.50;;;;;;5076191;28;20035;-72
2023/10/02 00:19:30;;;;;;;19.67;11.18;;;15.10;74.50;;;;;;5076198;28;20032;-72
2023/10/02 00:22:03;;;;;;;16.35;10.57;;;15.10;74.50;;;;;;5075741;28;20046;-72
2023/10/02 00:24:32;;;;;;;21.98;11.93;;;15.00;74.80;;;;;;5076017;28;20033;-72
2023/10/02 00:26:58;;;;;;;19.67;11.68;;;15.00;74.60;;;;;;5075953;28;20021;-72
2023/10/02 00:29:28;;;;;;;21.92;12.10;;;14.90;74.80;;;;;;5076229;28;20427;-72
2023/10/02 00:31:54;;;;;;;18.58;12.05;;;14.90;75.00;;;;;;5076166;28;20381;-72
2023/10/02 00:34:32;;;;;;;17.67;10.90;;;14.90;75.00;;;;;;5075866;28;20398;-73
2023/10/02 00:37:06;;;;;;;19.80;11.02;;;14.80;75.20;;;;;;5075866;28;20511;-73
2023/10/02 00:39:40;;;;;;;21.90;11.13;;;14.80;75.50;;;;;;5075693;28;20070;-72
2023/10/02 00:42:24;;;;;;;19.05;11.52;;;14.70;75.60;;;;;;5075809;28;20025;-72
2023/10/02 00:44:52;;;;;;;19.85;10.75;;;14.70;75.60;;;;;;5075732;28;20027;-72
2023/10/02 00:47:42;;;;;;;18.52;10.82;;;14.70;75.70;;;;;;5075205;28;20036;-72
2023/10/02 00:50:16;;;;;;;17.92;10.80;;;14.70;75.80;;;;;;5075619;28;20411;-71
2023/10/02 00:52:46;;;;;;;18.50;11.05;;;14.70;75.70;;;;;;5075567;28;20020;-71
2023/10/02 00:55:22;;;;;;;17.48;11.90;;;14.60;75.60;;;;;;5075583;28;20051;-71
2023/10/02 00:57:56;;;;;;;18.27;11.30;;;14.60;75.50;;;;;;5075335;28;20325;-71
2023/10/02 01:00:36;;;;;;;18.02;11.40;;;14.70;75.50;;;;;;5075438;28;20070;-72
2023/10/02 01:03:08;;;;;;;19.52;11.35;;;14.60;75.50;;;;;;5075404;28;20095;-72
2023/10/02 01:05:58;;;;;;;16.17;10.45;;;14.60;75.40;;;;;;5075313;28;20017;-72
2023/10/02 01:08:24;;;;;;;17.27;10.77;;;14.60;75.40;;;;;;5075424;28;20044;-72
2023/10/02 01:10:58;;;;;;;17.95;10.82;;;14.60;75.20;;;;;;5075121;28;20035;-72
2023/10/02 01:13:38;;;;;;;19.63;11.05;;;14.60;75.10;;;;;;5075205;28;20081;-72
2023/10/02 01:16:08;;;;;;;20.63;12.05;;;14.60;75.30;;;;;;5075413;28;20024;-72
2023/10/02 01:18:35;;;;;;;20.88;10.93;;;14.60;75.40;;;;;;5075165;28;20034;-72
2023/10/02 01:21:09;;;;;;;19.25;11.50;;;14.60;75.40;;;;;;5075281;28;20070;-72
2023/10/02 01:24:07;;;;;;;18.02;10.82;;;14.60;75.40;;;;;;5075092;28;20373;-72
2023/10/02 01:26:40;;;;;;;17.05;11.02;;;14.50;75.40;;;;;;5056945;28;20461;-72
2023/10/02 01:29:07;;;;;;;19.52;11.43;;;14.50;75.40;;;;;;5074970;28;20040;-72
2023/10/02 01:31:44;;;;;;;20.13;10.70;;;14.50;75.80;;;;;;5074901;28;20013;-72
2023/10/02 01:34:12;;;;;;;18.17;11.07;;;14.50;75.90;;;;;;5075045;28;20027;-72
2023/10/02 01:36:41;;;;;;;16.38;10.48;;;14.50;75.90;;;;;;5074794;28;20023;-72
2023/10/02 01:39:16;;;;;;;19.95;10.82;;;14.40;75.70;;;;;;5074839;28;20065;-73
2023/10/02 01:41:48;;;;;;;16.02;10.52;;;14.40;75.80;;;;;;5074836;28;20033;-73
2023/10/02 01:44:18;;;;;;;18.63;11.40;;;14.30;75.90;;;;;;5074703;28;20016;-73
2023/10/02 01:46:49;;;;;;;19.67;11.20;;;14.20;76.20;;;;;;5074484;28;20048;-72
2023/10/02 01:49:24;;;;;;;24.45;11.52;;;14.20;76.30;;;;;;5074753;28;20566;-72
2023/10/02 01:52:01;;;;;;;16.30;10.32;;;14.30;76.60;;;;;;5074780;28;20400;-72
2023/10/02 01:54:29;;;;;;;18.13;11.27;;;14.30;76.50;;;;;;5074510;28;20438;-72
2023/10/02 01:56:56;;;;;;;19.45;11.88;;;14.40;76.40;;;;;;5074423;28;20137;-71
2023/10/02 01:59:24;;;;;;;20.23;12.30;;;14.40;75.80;;;;;;5074385;28;20046;-72
2023/10/02 02:01:52;;;;;;;21.42;11.80;;;14.40;75.50;;;;;;5074449;28;20012;-71
2023/10/02 02:04:33;;;;;;;18.33;11.00;;;14.30;75.30;;;;;;5074208;28;20060;-72
2023/10/02 02:07:01;;;;;;;19.45;11.40;;;14.30;75.50;;;;;;5074028;28;20142;-73
2023/10/02 02:09:32;;;;;;;22.50;12.68;;;14.30;75.60;;;;;;5074049;28;20036;-72
2023/10/02 02:12:05;;;;;;;21.25;12.15;;;14.20;75.80;;;;;;5073716;28;20039;-74
2023/10/02 02:14:49;;;;;;;20.98;12.32;;;14.20;76.20;;;;;;5073991;28;20036;-72
2023/10/02 02:17:16;;;;;;;21.55;12.98;;;14.10;76.40;;;;;;5074100;28;20358;-73
2023/10/02 02:19:48;;;;;;;22.20;12.98;;;14.10;76.40;;;;;;5073885;28;20021;-73
2023/10/02 02:22:26;;;;;;;24.83;13.95;;;14.20;76.50;;;;;;5073862;28;20020;-73
2023/10/02 02:25:00;;;;;;;24.77;14.95;;;14.20;76.10;;;;;;5073827;28;20058;-73
2023/10/02 02:27:26;;;;;;;24.02;13.55;;;14.10;76.00;;;;;;5073836;28;20035;-72
2023/10/02 02:29:56;;;;;;;19.90;12.15;;;14.10;76.00;;;;;;5073700;28;20097;-73
2023/10/02 02:32:36;;;;;;;26.40;13.07;;;14.00;75.70;;;;;;5073721;28;20096;-72
2023/10/02 02:35:05;;;;;;;23.50;13.30;;;14.00;75.80;;;;;;5073692;28;20036;-73
2023/10/02 02:37:32;;;;;;;22.83;13.80;;;14.00;75.80;;;;;;5073495;28;20020;-73
2023/10/02 02:40:21;;;;;;;25.63;14.20;;;13.90;75.70;;;;;;5073403;28;20039;-72
2023/10/02 02:42:45;;;;;;;;;;;13.90;75.70;;;;;;5073985;28;20035;-72
2023/10/02 02:45:29;;;;;;;26.13;14.77;;;13.90;75.50;;;;;;5073507;28;19912;-72
2023/10/02 02:47:57;;;;;;;29.30;15.07;;;13.90;75.30;;;;;;5073162;28;20498;-72
2023/10/02 02:50:32;;;;;;;29.13;15.45;;;13.90;74.80;;;;;;5073348;28;20017;-72
2023/10/02 02:55:42;;;;;;;27.70;15.80;;;13.80;74.20;;;;;;5073299;28;20074;-72
2023/10/02 02:58:08;;;;;;;25.92;15.32;;;13.80;74.00;;;;;;5073275;28;20026;-72
2023/10/02 03:00:35;;;;;;;29.75;16.08;;;13.90;74.10;;;;;;5073187;28;20020;-72
2023/10/02 03:03:02;;;;;;;28.40;16.60;;;13.90;73.90;;;;;;5073158;28;20047;-72
2023/10/02 03:05:43;;;;;;;28.08;15.95;;;13.90;73.90;;;;;;5073051;28;20384;-72
2023/10/02 03:08:11;;;;;;;31.55;16.85;;;13.90;73.70;;;;;;5073061;28;20087;-73
2023/10/02 03:10:39;;;;;;;29.17;16.02;;;13.90;73.10;;;;;;5073072;28;20021;-73
2023/10/02 03:13:08;;;;;;;28.17;15.65;;;13.90;72.70;;;;;;5073080;28;20024;-73
2023/10/02 03:15:45;;;;;;;30.33;15.95;;;13.90;72.80;;;;;;5072875;28;20040;-73
2023/10/02 03:18:30;;;;;;;28.13;15.73;;;13.80;72.70;;;;;;5073210;28;20032;-73
2023/10/02 03:20:58;;;;;;;27.15;15.85;;;13.80;72.70;;;;;;5073163;28;20025;-72
2023/10/02 03:23:27;;;;;;;30.13;17.38;;;13.70;72.40;;;;;;5073013;28;20467;-72
2023/10/02 03:25:56;;;;;;;29.10;16.60;;;13.70;72.40;;;;;;5072832;28;20063;-72
2023/10/02 03:28:28;;;;;;;30.48;17.45;;;13.60;72.30;;;;;;5073097;28;20033;-73
2023/10/02 03:30:58;;;;;;;31.38;17.98;;;13.70;72.20;;;;;;5072879;28;20078;-73
2023/10/02 03:33:26;;;;;;;31.92;18.00;;;13.70;71.80;;;;;;5072678;28;20027;-74
2023/10/02 03:36:07;;;;;;;30.02;17.23;;;13.70;71.50;;;;;;5072829;28;20469;-73
2023/10/02 03:38:33;;;;;;;31.77;18.38;;;13.70;71.30;;;;;;5072717;28;20039;-73
2023/10/02 03:41:01;;;;;;;30.80;16.90;;;13.60;70.90;;;;;;5072780;28;20028;-73
2023/10/02 03:43:34;;;;;;;34.05;17.92;;;13.60;71.10;;;;;;5072623;28;20060;-73
2023/10/02 03:46:06;;;;;;;28.80;17.38;;;13.60;71.00;;;;;;5072635;28;20078;-73
2023/10/02 03:48:36;;;;;;;31.95;17.98;;;13.60;70.60;;;;;;5072277;28;20048;-73
2023/10/02 03:51:06;;;;;;;33.47;17.85;;;13.60;70.40;;;;;;5054488;28;20385;-73
2023/10/02 03:53:33;;;;;;;29.05;17.25;;;13.60;70.00;;;;;;5072577;28;20029;-73
2023/10/02 03:56:36;;;;;;;32.33;17.90;;;13.60;69.70;;;;;;5054573;28;20028;-73
2023/10/02 03:58:51;;;;;;;36.25;18.33;;;13.60;69.40;;;;;;5072326;28;20029;-73
2023/10/02 04:01:26;;;;;;;33.65;19.35;;;13.60;69.50;;;;;;5072567;28;20013;-73
2023/10/02 04:03:57;;;;;;;34.78;19.15;;;13.60;69.70;;;;;;5072647;28;20024;-73
2023/10/02 04:06:33;;;;;;;32.17;18.40;;;13.60;70.10;;;;;;5072387;28;20019;-73
2023/10/02 04:09:09;;;;;;;32.70;19.23;;;13.70;70.30;;;;;;5054523;28;20036;-73
2023/10/02 04:11:35;;;;;;;36.20;19.88;;;13.60;70.30;;;;;;5054739;28;20086;-73
2023/10/02 04:14:02;;;;;;;35.72;18.52;;;13.60;70.50;;;;;;5054534;28;20081;-73
2023/10/02 04:16:30;;;;;;;34.47;18.88;;;13.60;70.50;;;;;;5054540;28;20416;-73
2023/10/02 04:19:00;;;;;;;30.83;18.20;;;13.50;70.30;;;;;;5054616;28;20025;-74
2023/10/02 04:21:27;;;;;;;31.60;18.35;;;13.50;70.60;;;;;;5054490;28;20040;-73
2023/10/02 04:23:53;;;;;;;36.70;18.50;;;13.50;70.10;;;;;;5054559;28;20056;-73
2023/10/02 04:26:21;;;;;;;29.92;17.92;;;13.50;69.60;;;;;;5054156;28;20032;-73
2023/10/02 04:31:35;;;;;;;34.78;18.23;;;13.50;68.00;;;;;;5072365;28;20523;-72
2023/10/02 04:34:24;;;;;;;36.50;19.48;;;13.50;68.10;;;;;;5073756;28;20063;-72
2023/10/02 04:36:51;;;;;;;32.65;18.00;;;13.40;68.10;;;;;;5075995;28;20024;-72
2023/10/02 04:40:23;;;;;;;36.78;19.30;;;13.50;68.00;;;;;;5075834;28;20019;-73
2023/10/02 04:42:12;;;;;;;33.78;19.85;;;13.40;67.70;;;;;;5062210;28;20051;-73
2023/10/02 04:44:44;;;;;;;35.63;19.90;;;13.40;67.30;;;;;;5075590;28;20017;-72
2023/10/02 04:47:17;;;;;;;29.98;18.17;;;13.40;67.30;;;;;;5075521;28;20036;-72
2023/10/02 04:52:53;;;;;;;33.53;19.17;;;13.40;66.80;;;;;;5076190;28;20112;-73
2023/10/02 04:55:14;;;;;;;35.00;20.05;;;13.50;66.50;;;;;;5075379;28;20028;-73
2023/10/02 04:57:42;;;;;;;37.42;19.65;;;13.40;66.50;;;;;;5075690;28;20032;-72
2023/10/02 05:00:24;;;;;;;36.78;20.42;;;13.40;66.90;;;;;;5075550;28;20026;-72
2023/10/02 05:03:09;;;;;;;36.42;19.70;;;13.40;67.40;;;;;;5075540;28;20035;-72
2023/10/02 05:05:47;;;;;;;34.53;18.83;;;13.40;67.90;;;;;;5075456;28;20074;-73
2023/10/02 05:08:20;;;;;;;36.63;19.92;;;13.40;68.70;;;;;;5075237;28;20075;-73
2023/10/02 05:10:56;;;;;;;36.28;20.73;;;13.40;67.70;;;;;;5075780;28;20032;-73
2023/10/02 05:16:11;;;;;;;32.25;18.63;;;13.50;68.00;;;;;;5075679;28;20020;-72
2023/10/02 05:18:37;;;;;;;38.33;21.02;;;13.50;67.50;;;;;;5075435;28;20060;-74
2023/10/02 05:21:03;;;;;;;37.55;20.45;;;13.50;67.20;;;;;;5075472;28;20059;-72
2023/10/02 05:23:30;;;;;;;34.30;19.50;;;13.50;66.70;;;;;;5075077;28;20025;-72
2023/10/02 05:26:00;;;;;;;35.90;20.52;;;13.60;66.80;;;;;;5075056;28;20028;-72
2023/10/02 05:28:38;;;;;;;35.67;20.08;;;13.60;67.00;;;;;;5074813;28;20040;-72
2023/10/02 05:31:07;;;;;;;34.15;19.25;;;13.60;67.10;;;;;;5077273;28;20027;-73
2023/10/02 05:33:37;;;;;;;36.83;18.42;;;13.60;67.20;;;;;;5079555;28;20020;-73
2023/10/02 05:36:07;;;;;;;33.47;17.92;;;13.60;67.20;;;;;;5081013;28;20058;-74
2023/10/02 05:38:34;;;;;;;32.15;18.17;;;13.60;66.30;;;;;;5076160;28;20043;-84
2023/10/02 05:40:59;;;;;;;32.28;18.65;;;13.60;66.00;;;;;;5076523;28;20131;-80
2023/10/02 05:43:31;;;;;;;31.75;18.15;;;13.60;65.70;;;;;;5076195;28;20025;-86
2023/10/02 05:45:57;;;;;;;34.10;18.77;;;13.60;65.50;;;;;;5076778;28;20016;-77
2023/10/02 05:50:56;;;;;;;33.22;18.92;;;13.60;65.00;;;;;;5077441;28;20024;-84
2023/10/02 05:53:26;;;;;;;32.53;19.05;;;13.60;64.70;;;;;;5075805;28;20031;-73
2023/10/02 05:56:05;;;;;;;36.08;18.80;;;13.60;64.90;;;;;;5076078;28;20024;-72
2023/10/02 05:58:41;;;;;;;35.53;18.65;;;13.60;64.50;;;;;;5075625;28;20027;-75
2023/10/02 06:01:26;;;;;;;32.80;19.15;;;13.60;64.40;;;;;;5071785;28;20017;-72
2023/10/02 06:03:58;;;;;;;34.83;19.80;;;13.60;63.70;;;;;;5034610;28;20036;-75
2023/10/02 06:06:25;;;;;;;35.25;19.38;;;13.60;63.80;;;;;;5052534;28;20667;-72
2023/10/02 06:09:12;;;;;;;33.58;19.25;;;13.60;64.00;;;;;;5055575;28;20478;-74
2023/10/02 06:14:24;;;;;;;35.22;18.63;;;13.70;64.10;;;;;;5052459;28;20401;-74
2023/10/02 06:16:52;;;;;;;33.42;19.23;;;13.80;64.00;;;;;;5034129;28;20440;-75
2023/10/02 06:19:18;;;;;;;35.08;19.77;;;13.80;63.60;;;;;;5049187;28;20074;-74
2023/10/02 06:21:46;;;;;;;32.60;18.40;;;13.90;63.60;;;;;;5034733;28;20025;-75
2023/10/02 06:24:18;;;;;;;35.55;19.45;;;13.90;63.40;;;;;;5048024;28;20397;-72
2023/10/02 06:26:57;;;;;;;34.38;18.95;;;14.00;63.00;;;;;;5050238;28;20040;-73
2023/10/02 06:29:28;;;;;;;48.60;19.17;;;14.10;62.40;;;;;;5054146;28;20029;-75
2023/10/02 06:31:58;;;;;;;37.42;20.70;;;14.40;81.90;;;;;;5054243;28;20021;-74
2023/10/02 06:34:37;;;;;;;43.63;19.67;;;14.40;72.40;;;;;;5036548;28;20025;-74
2023/10/02 06:37:08;;;;;;;38.60;21.13;;;14.50;67.90;;;;;;5052755;28;20037;-76
2023/10/02 06:40:03;;;;;;;35.78;19.98;;;14.60;65.20;;;;;;5036530;28;20021;-76
2023/10/02 06:42:30;;;;;;;41.97;21.35;;;14.60;63.70;;;;;;5053717;28;20021;-74
2023/10/02 06:45:01;;;;;;;34.67;19.85;;;14.60;63.50;;;;;;5053781;28;20482;-74
2023/10/02 06:47:32;;;;;;;37.15;20.67;;;14.70;63.90;;;;;;5053444;28;20049;-73
2023/10/02 06:50:27;;;;;;;32.47;18.40;;;14.80;63.10;;;;;;5053094;28;20369;-73
2023/10/02 06:52:51;;;;;;;36.20;19.75;;;14.80;63.00;;;;;;5053458;28;20562;-72
2023/10/02 06:55:18;;;;;;;37.97;20.05;;;15.00;62.90;;;;;;5053552;28;20049;-73
2023/10/02 06:57:52;;;;;;;36.95;20.17;;;15.00;63.20;;;;;;5052609;28;20032;-73
2023/10/02 07:00:22;;;;;;;33.70;19.65;;;15.20;63.40;;;;;;5052631;28;20025;-73
2023/10/02 07:02:57;;;;;;;36.47;20.20;;;15.40;63.10;;;;;;5035419;28;20025;-74
2023/10/02 07:05:32;;;;;;;35.22;19.83;;;15.60;62.60;;;;;;5052990;28;20044;-73
2023/10/02 07:08:01;;;;;;;37.17;20.57;;;15.80;62.70;;;;;;5034847;28;20105;-70
2023/10/02 07:10:42;;;;;;;32.15;19.30;;;15.90;62.50;;;;;;5052918;28;20275;-70
2023/10/02 07:13:19;;;;;;;35.63;19.73;;;15.90;62.40;;;;;;5052985;28;20028;-72
2023/10/02 07:15:45;;;;;;;31.85;18.92;;;16.10;62.70;;;;;;5053005;28;20017;-72
2023/10/02 07:18:12;;;;;;;33.90;19.45;;;16.20;62.20;;;;;;5052548;28;20029;-72
2023/10/02 07:20:42;;;;;;;39.00;20.27;;;16.40;61.80;;;;;;5052863;28;20021;-71
2023/10/02 07:23:15;;;;;;;33.22;19.05;;;16.40;61.90;;;;;;5052761;28;20021;-72
2023/10/02 07:25:50;;;;;;;34.70;20.02;;;16.50;61.50;;;;;;5052563;28;20017;-72
2023/10/02 07:28:16;;;;;;;35.42;20.92;;;16.70;61.10;;;;;;5052886;28;20043;-72
2023/10/02 07:30:42;;;;;;;38.47;20.45;;;16.70;61.20;;;;;;5052760;28;20025;-71
2023/10/02 07:33:07;;;;;;;34.50;20.23;;;16.80;61.00;;;;;;5050423;28;20029;-71
2023/10/02 07:35:33;;;;;;;33.85;19.83;;;16.90;60.10;;;;;;5049450;28;20092;-77
2023/10/02 07:37:59;;;;;;;35.63;20.02;;;17.10;59.20;;;;;;5052243;28;20035;-72
2023/10/02 07:40:46;;;;;;;36.55;21.42;;;17.20;58.00;;;;;;5052639;28;20017;-72
2023/10/02 07:43:13;;;;;;;34.65;19.42;;;17.30;57.60;;;;;;5052750;28;20051;-74
2023/10/02 07:45:38;;;;;;;34.97;20.33;;;17.50;57.30;;;;;;5052689;28;20195;-73
2023/10/02 07:48:16;;;;;;;40.33;20.77;;;17.60;56.60;;;;;;5052487;28;20132;-71
2023/10/02 07:50:44;;;;;;;35.55;20.75;;;17.70;56.70;;;;;;5052800;28;20036;-71
2023/10/02 07:53:09;;;;;;;33.10;20.02;;;17.80;56.20;;;;;;5034588;28;20037;-74
2023/10/02 07:55:42;;;;;;;33.38;19.85;;;17.90;54.40;;;;;;5034528;28;20139;-80
2023/10/02 07:58:13;;;;;;;37.10;20.80;;;18.10;53.90;;;;;;5052267;28;20053;-72
2023/10/02 08:00:41;;;;;;;38.38;20.67;;;18.20;54.00;;;;;;5051300;28;20028;-72
2023/10/02 08:05:58;;;;;;;41.15;21.67;;;18.40;53.70;;;;;;5053483;28;20031;-74
2023/10/02 08:08:34;;;;;;;36.28;20.30;;;18.60;53.50;;;;;;5055041;28;20029;-73
2023/10/02 08:11:10;;;;;;;34.78;20.60;;;18.70;53.50;;;;;;5040150;28;20028;-73
2023/10/02 08:13:37;;;;;;;39.25;21.10;;;18.80;53.10;;;;;;5039167;28;20053;-73
2023/10/02 08:16:11;;;;;;;32.95;19.88;;;19.00;53.00;;;;;;5056604;28;20020;-77
2023/10/02 08:18:57;;;;;;;35.60;21.10;;;19.10;52.60;;;;;;5039277;28;20075;-73
2023/10/02 08:21:33;;;;;;;35.72;20.52;;;19.20;52.00;;;;;;5056274;28;20017;-72
2023/10/02 08:24:01;;;;;;;40.03;22.20;;;19.40;51.70;;;;;;5038265;28;20029;-72
2023/10/02 08:26:27;;;;;;;35.13;21.13;;;19.60;51.00;;;;;;5056256;28;20032;-73
2023/10/02 08:28:53;;;;;;;38.95;21.65;;;19.70;51.10;;;;;;5056002;28;20032;-73
2023/10/02 08:31:19;;;;;;;37.15;20.38;;;19.80;50.40;;;;;;5056018;28;20021;-71
2023/10/02 08:33:45;;;;;;;34.95;19.83;;;20.00;50.30;;;;;;5054226;28;20025;-72
2023/10/02 08:36:12;;;;;;;41.38;21.80;;;20.10;49.80;;;;;;5055687;28;20059;-72
2023/10/02 08:38:40;;;;;;;33.50;19.25;;;20.30;49.70;;;;;;5056052;28;20049;-75
2023/10/02 08:41:08;;;;;;;36.95;20.25;;;20.60;49.50;;;;;;5055684;28;20114;-80
2023/10/02 08:43:41;;;;;;;41.97;21.30;;;20.80;49.10;;;;;;5056267;28;20158;-76
2023/10/02 08:46:19;;;;;;;35.13;20.00;;;21.00;48.70;;;;;;5056053;28;20031;-72
2023/10/02 08:48:54;;;;;;;36.50;20.58;;;21.10;48.90;;;;;;5055209;28;20041;-73
2023/10/02 08:51:32;;;;;;;39.00;21.80;;;21.20;48.40;;;;;;5055292;28;20373;-72
2023/10/02 08:53:58;;;;;;;38.95;22.25;;;21.30;48.10;;;;;;5055351;28;20037;-72
2023/10/02 08:56:37;;;;;;;33.63;21.10;;;21.50;49.10;;;;;;5055322;28;20035;-74
2023/10/02 08:59:26;;;;;;;43.03;23.13;;;21.70;50.10;;;;;;5055593;28;20031;-74
2023/10/02 09:02:14;;;;;;;37.65;20.38;;;21.70;52.00;;;;;;5055284;28;20025;-72
2023/10/02 09:05:00;;;;;;;39.80;21.05;;;21.90;51.10;;;;;;5055519;28;20017;-71
2023/10/02 09:08:00;;;;;;;35.95;21.38;;;22.00;50.20;;;;;;5044513;28;20537;-72
2023/10/02 09:10:26;;;;;;;34.92;20.77;;;22.20;51.40;;;;;;5055345;28;20033;-71
2023/10/02 09:13:17;;;;;;;40.58;22.80;;;22.30;51.10;;;;;;5055284;28;20047;-77
2023/10/02 09:15:48;;;;;;;37.40;21.80;;;22.40;51.80;;;;;;5037364;28;20032;-80
2023/10/02 09:18:35;;;;;;;35.42;22.00;;;22.50;51.20;;;;;;5037016;28;20017;-72
2023/10/02 09:21:17;;;;;;;41.42;23.00;;;22.70;51.60;;;;;;5054327;28;20052;-74
2023/10/02 09:23:53;;;;;;;37.20;22.52;;;22.80;52.40;;;;;;5056546;28;20131;-72
2023/10/02 09:26:26;;;;;;;35.97;20.98;;;23.00;52.10;;;;;;5054772;28;20021;-73
2023/10/02 09:29:00;;;;;;;38.42;22.52;;;23.00;51.50;;;;;;5054651;28;20507;-73
2023/10/02 09:31:30;;;;;;;42.83;23.40;;;23.10;51.70;;;;;;5054797;28;20032;-71
2023/10/02 09:33:56;;;;;;;41.22;23.50;;;23.40;51.00;;;;;;5054546;28;20555;-72
2023/10/02 09:37:11;;;;;;;40.40;24.60;;;23.50;50.50;;;;;;5054306;28;20107;-73
2023/10/02 09:42:07;;;;;;;38.53;23.25;;;23.90;48.90;;;;;;5054596;28;20036;-72
2023/10/02 09:44:45;;;;;;;44.30;24.40;;;24.10;48.30;;;;;;5054549;28;20078;-72
2023/10/02 09:47:12;;;;;;;41.90;23.98;;;24.30;46.90;;;;;;5054138;28;20040;-74
2023/10/02 09:49:47;;;;;;;39.33;22.38;;;24.30;47.20;;;;;;5054542;28;20042;-73
2023/10/02 09:52:23;;;;;;;44.30;26.08;;;24.40;46.50;;;;;;5054239;28;20021;-73
2023/10/02 09:54:56;;;;;;;;;;;24.70;47.20;;;;;;5054926;28;20119;-74
2023/10/02 09:57:29;;;;;;;41.13;24.90;;;24.70;47.10;;;;;;5054305;28;19909;-75
2023/10/02 09:59:57;;;;;;;47.35;25.85;;;24.80;45.80;;;;;;5054123;28;20032;-74
2023/10/02 10:10:52;;;;;;;50.10;26.20;;;25.60;45.50;;;;;;5054121;28;20495;-74
2023/10/02 10:13:31;;;;;;;44.50;25.58;;;25.70;45.00;;;;;;5054270;28;20373;-72
2023/10/02 10:16:18;;;;;;;45.97;25.73;;;25.90;44.30;;;;;;5053931;28;20036;-76
2023/10/02 10:21:58;;;;;;;48.15;27.00;;;26.30;43.50;;;;;;5054679;28;20047;-74
2023/10/02 10:27:38;;;;;;;49.88;28.13;;;26.70;41.50;;;;;;5022239;28;20103;-72
2023/10/02 10:30:34;;;;;;;48.90;27.05;;;26.70;42.10;;;;;;5053730;28;20032;-73
2023/10/02 10:35:41;;;;;;;48.28;26.80;;;27.10;41.00;;;;;;5053845;28;20039;-72
2023/10/02 10:38:21;;;;;;;49.40;29.13;;;27.20;40.40;;;;;;5053439;28;20492;-74
2023/10/02 10:40:50;;;;;;;50.08;29.10;;;27.50;39.40;;;;;;5054180;28;20048;-73
2023/10/02 10:43:21;;;;;;;50.75;29.27;;;27.60;39.50;;;;;;5034670;28;20160;-74
2023/10/02 10:45:48;;;;;;;52.55;29.80;;;27.60;39.50;;;;;;5035842;28;20083;-73
2023/10/02 10:48:22;;;;;;;52.38;30.10;;;27.90;39.00;;;;;;5051866;28;20116;-72
2023/10/02 10:51:06;;;;;;;55.05;30.25;;;28.30;37.20;;;;;;5053425;28;20432;-73
2023/10/02 10:53:32;;;;;;;52.50;30.45;;;28.50;36.40;;;;;;5053387;28;20096;-73
2023/10/02 10:56:16;;;;;;;55.22;31.23;;;28.70;36.00;;;;;;5035048;28;20063;-73
2023/10/02 10:58:44;;;;;;;53.47;31.00;;;28.80;34.70;;;;;;5052961;28;20060;-73
2023/10/02 11:01:13;;;;;;;56.83;32.10;;;29.00;34.60;;;;;;5035339;28;20111;-76
2023/10/02 11:03:39;;;;;;;53.92;31.60;;;29.20;33.80;;;;;;5035410;28;20389;-73
2023/10/02 11:06:09;;;;;;;54.70;32.53;;;29.40;33.80;;;;;;5052948;28;20145;-71
2023/10/02 11:08:38;;;;;;;54.65;32.15;;;29.60;33.20;;;;;;5052927;28;20115;-76
2023/10/02 11:11:30;;;;;;;55.38;32.28;;;29.70;33.70;;;;;;5049173;28;20028;-72
2023/10/02 11:13:59;;;;;;;58.88;34.60;;;29.50;34.00;;;;;;5043458;28;20045;-74
2023/10/02 11:16:35;;;;;;;57.90;33.88;;;29.70;33.10;;;;;;5032960;28;20353;-73
2023/10/02 11:22:15;;;;;;;60.67;36.67;;;30.20;32.20;;;;;;5046329;28;20457;-73
2023/10/02 11:24:53;;;;;;;68.05;38.50;;;30.40;30.90;;;;;;5036060;28;20018;-75
2023/10/02 11:27:19;;;;;;;67.22;38.35;;;30.50;30.60;;;;;;5050494;28;20031;-72
2023/10/02 11:30:00;;;;;;;63.65;35.92;;;30.50;31.50;;;;;;5050267;28;20074;-72
2023/10/02 11:32:48;;;;;;;63.03;36.22;;;30.50;32.20;;;;;;5051194;28;20382;-72
2023/10/02 11:35:14;;;;;;;61.50;36.28;;;30.60;32.10;;;;;;5046863;28;20103;-73
2023/10/02 11:37:50;;;;;;;62.90;36.50;;;30.80;31.60;;;;;;5050736;28;20090;-72
2023/10/02 11:40:16;;;;;;;80.30;43.05;;;30.70;32.90;;;;;;5051208;28;20096;-74
2023/10/02 11:42:41;;;;;;;73.72;41.58;;;30.90;30.80;;;;;;5054196;28;20413;-72
2023/10/02 11:45:08;;;;;;;79.03;44.17;;;31.10;30.50;;;;;;5057180;28;20021;-72
2023/10/02 11:47:34;;;;;;;73.75;40.50;;;31.30;29.80;;;;;;5056557;28;20135;-73
2023/10/02 11:50:00;;;;;;;68.22;39.70;;;31.70;30.40;;;;;;5056707;28;20068;-73
2023/10/02 11:52:26;;;;;;;82.20;44.05;;;31.80;29.90;;;;;;5056683;28;20040;-80
2023/10/02 11:54:51;;;;;;;79.63;43.33;;;32.20;27.70;;;;;;5056671;28;20037;-72
2023/10/02 11:57:17;;;;;;;78.88;44.42;;;32.20;24.60;;;;;;5057092;28;20095;-80
2023/10/02 11:59:47;;;;;;;84.57;48.90;;;32.30;23.30;;;;;;5058387;28;20543;-76
2023/10/02 12:02:16;;;;;;;72.63;42.45;;;32.40;22.30;;;;;;5056668;28;20017;-84
2023/10/02 12:04:43;;;;;;;76.00;43.05;;;32.30;21.60;;;;;;5057363;28;20029;-78
2023/10/02 12:07:10;;;;;;;74.30;42.22;;;32.30;21.00;;;;;;5056898;28;20029;-75
2023/10/02 12:09:36;;;;;;;69.10;39.28;;;32.20;21.20;;;;;;5038649;28;20134;-78
2023/10/02 12:12:02;;;;;;;69.68;39.67;;;32.30;20.90;;;;;;5038525;28;20036;-78
2023/10/02 12:14:29;;;;;;;71.00;40.75;;;32.30;20.20;;;;;;5056524;28;20032;-79
2023/10/02 12:16:57;;;;;;;112.47;70.97;;;32.20;19.10;;;;;;5038486;28;20021;-80
2023/10/02 12:19:28;;;;;;;68.07;39.78;;;32.20;19.90;;;;;;5056154;28;20465;-81
2023/10/02 12:21:54;;;;;;;63.08;35.97;;;32.40;18.40;;;;;;5056082;28;20021;-73
2023/10/02 12:24:20;;;;;;;59.30;35.40;;;32.50;18.60;;;;;;5055656;28;20024;-81
2023/10/02 12:26:46;;;;;;;62.60;35.88;;;32.60;18.00;;;;;;5056005;28;20024;-78
2023/10/02 12:29:12;;;;;;;62.08;36.35;;;32.60;19.10;;;;;;5054683;28;20029;-78
2023/10/02 12:31:38;;;;;;;63.28;36.50;;;32.50;18.30;;;;;;5056068;28;20024;-80
2023/10/02 12:34:05;;;;;;;62.28;34.67;;;32.70;17.70;;;;;;5055841;28;20103;-81
2023/10/02 12:36:31;;;;;;;70.00;38.38;;;32.90;16.70;;;;;;5055807;28;20013;-80
2023/10/02 12:38:57;;;;;;;73.95;40.25;;;32.70;15.70;;;;;;5054712;28;20484;-82
2023/10/02 12:41:25;;;;;;;68.68;39.33;;;32.90;14.40;;;;;;5055525;28;20071;-76
2023/10/02 12:43:56;;;;;;;66.40;38.00;;;33.10;14.80;;;;;;5055872;28;20082;-81
2023/10/02 12:46:23;;;;;;;68.32;39.35;;;33.30;15.70;;;;;;5055457;28;20025;-82
2023/10/02 12:48:50;;;;;;;61.35;35.97;;;33.50;14.50;;;;;;5055845;28;20104;-78
2023/10/02 12:51:17;;;;;;;56.40;32.95;;;33.60;13.70;;;;;;5055501;28;20025;-79
2023/10/02 12:53:43;;;;;;;57.45;32.10;;;33.60;12.80;;;;;;5055274;28;20029;-80
2023/10/02 12:56:18;;;;;;;56.22;31.95;;;33.60;13.70;;;;;;5055048;28;20031;-80
2023/10/02 12:58:44;;;;;;;51.72;29.98;;;33.80;14.20;;;;;;5054288;28;20040;-77
2023/10/02 13:01:13;;;;;;;56.60;32.03;;;34.00;14.30;;;;;;5037306;28;20021;-79
2023/10/02 13:03:42;;;;;;;56.30;32.35;;;33.90;13.30;;;;;;5055378;28;20025;-79
2023/10/02 13:06:11;;;;;;;50.63;29.48;;;33.50;14.50;;;;;;5055672;28;20021;-77
2023/10/02 13:08:41;;;;;;;55.15;32.50;;;33.70;14.40;;;;;;5037549;28;20032;-78
2023/10/02 13:11:12;;;;;;;54.85;31.05;;;33.40;13.90;;;;;;5037245;28;20028;-79
2023/10/02 13:13:45;;;;;;;43.60;26.33;;;33.60;14.30;;;;;;5038215;28;20374;-81
2023/10/02 13:16:11;;;;;;;43.78;25.73;;;33.90;13.70;;;;;;5055952;28;20316;-78
2023/10/02 13:18:38;;;;;;;41.67;24.67;;;34.00;13.70;;;;;;5058588;28;20365;-80
2023/10/02 13:21:07;;;;;;;40.60;24.02;;;34.20;14.10;;;;;;5037103;28;20476;-82
2023/10/02 13:23:33;;;;;;;38.20;22.70;;;34.40;13.60;;;;;;5055001;28;20039;-77
2023/10/02 13:25:58;;;;;;;41.58;24.25;;;34.50;13.10;;;;;;5055129;28;20104;-81
2023/10/02 13:28:24;;;;;;;40.67;24.67;;;34.80;13.30;;;;;;5055175;28;20029;-80
2023/10/02 13:30:52;;;;;;;41.00;24.63;;;34.90;13.20;;;;;;5055142;28;20025;-83
2023/10/02 13:33:20;;;;;;;40.53;23.70;;;35.00;13.80;;;;;;5056052;28;20033;-77
2023/10/02 13:35:54;;;;;;;45.67;26.67;;;35.10;13.60;;;;;;5054326;28;20066;-76
2023/10/02 13:38:20;;;;;;;47.97;26.67;;;35.20;13.30;;;;;;5055341;28;20029;-75